Time;durP1;ratioP1;P1;durP2;ratioP2;P2;SDS_P1;SDS_P2;PMS_P1;PMS_P2;Temp;Humidity;BMP_temperature;BMP_pressure;BME280_temperature;BME280_humidity;BME280_pressure;Samples;Min_cycle;Max_cycle;Signal;HPM_P1;HPM_P2
2023/07/26 00:00:17;;;;;;;5.47;2.30;;;17.70;65.80;;;;;;5044788;28;20109;-67
2023/07/26 00:02:43;;;;;;;4.93;2.45;;;17.70;65.70;;;;;;5040328;28;20056;-66
2023/07/26 00:05:08;;;;;;;6.95;2.67;;;17.70;65.70;;;;;;5039235;28;20018;-67
2023/07/26 00:07:34;;;;;;;6.55;2.30;;;17.70;65.80;;;;;;5045418;28;20430;-67
2023/07/26 00:10:00;;;;;;;5.85;2.47;;;17.70;65.80;;;;;;5041334;28;20115;-67
2023/07/26 00:12:29;;;;;;;7.13;2.70;;;17.70;65.90;;;;;;5046960;28;20029;-67
2023/07/26 00:14:54;;;;;;;5.70;2.53;;;17.70;66.10;;;;;;5045050;28;20038;-67
2023/07/26 00:17:20;;;;;;;8.25;2.97;;;17.70;66.30;;;;;;5052416;28;20024;-67
2023/07/26 00:19:46;;;;;;;6.78;2.80;;;17.70;66.50;;;;;;5043735;28;20437;-67
2023/07/26 00:22:12;;;;;;;7.05;2.83;;;17.70;66.70;;;;;;5046594;28;20082;-67
2023/07/26 00:24:38;;;;;;;6.70;2.58;;;17.70;66.70;;;;;;5043452;28;20026;-67
2023/07/26 00:27:04;;;;;;;6.00;2.67;;;17.70;66.80;;;;;;5044483;28;20116;-67
2023/07/26 00:29:30;;;;;;;6.32;3.20;;;17.70;66.90;;;;;;5041387;28;20036;-67
2023/07/26 00:31:56;;;;;;;6.45;3.08;;;17.70;66.90;;;;;;5038476;28;20059;-67
2023/07/26 00:34:22;;;;;;;7.15;3.10;;;17.70;67.00;;;;;;5042661;28;20130;-67
2023/07/26 00:36:47;;;;;;;7.97;3.25;;;17.70;67.10;;;;;;5029927;28;20442;-67
2023/07/26 00:39:14;;;;;;;8.52;3.58;;;17.70;67.10;;;;;;5045897;28;20029;-67
2023/07/26 00:41:39;;;;;;;9.18;3.50;;;17.70;67.10;;;;;;5044805;28;20025;-67
2023/07/26 00:44:05;;;;;;;9.18;3.53;;;17.70;67.10;;;;;;5047807;28;20069;-67
2023/07/26 00:46:31;;;;;;;6.82;3.28;;;17.70;67.20;;;;;;5039317;28;20080;-67
2023/07/26 00:48:58;;;;;;;6.57;3.30;;;17.70;67.10;;;;;;5041260;28;20041;-68
2023/07/26 00:51:25;;;;;;;7.88;3.15;;;17.70;67.10;;;;;;5041833;28;20048;-67
2023/07/26 00:53:52;;;;;;;5.85;3.20;;;17.70;67.10;;;;;;5037430;28;20025;-67
2023/07/26 00:56:17;;;;;;;6.60;3.42;;;17.70;67.10;;;;;;5041494;28;20014;-67
2023/07/26 00:58:45;;;;;;;7.50;3.35;;;17.70;67.20;;;;;;5044558;28;20017;-67
2023/07/26 01:01:10;;;;;;;7.15;3.35;;;17.70;67.20;;;;;;5047370;28;20025;-67
2023/07/26 01:03:36;;;;;;;6.25;3.30;;;17.70;67.10;;;;;;5043541;28;20460;-66
2023/07/26 01:06:40;;;;;;;7.07;3.38;;;17.70;67.20;;;;;;5046246;28;20077;-67
2023/07/26 01:09:53;;;;;;;7.35;3.45;;;17.70;67.10;;;;;;4976936;28;20480;-67
2023/07/26 01:12:24;;;;;;;9.32;3.33;;;17.60;67.20;;;;;;5040964;28;20036;-66
2023/07/26 01:14:54;;;;;;;6.68;3.58;;;17.60;67.40;;;;;;5041967;28;20418;-66
2023/07/26 01:17:20;;;;;;;7.38;3.13;;;17.50;67.40;;;;;;5043064;28;20482;-67
2023/07/26 01:19:46;;;;;;;6.97;3.58;;;17.50;67.60;;;;;;5023894;28;20026;-67
2023/07/26 01:22:11;;;;;;;6.82;3.40;;;17.40;67.60;;;;;;5024958;28;20029;-67
2023/07/26 01:24:37;;;;;;;6.88;3.47;;;17.40;67.70;;;;;;5048889;28;20025;-67
2023/07/26 01:27:03;;;;;;;6.65;3.33;;;17.40;67.70;;;;;;5040233;28;20036;-67
2023/07/26 01:29:29;;;;;;;6.43;3.42;;;17.30;67.70;;;;;;5046980;28;20497;-67
2023/07/26 01:31:55;;;;;;;7.47;3.78;;;17.30;68.10;;;;;;5040790;28;20052;-66
2023/07/26 01:34:21;;;;;;;7.13;3.55;;;17.20;67.80;;;;;;5044914;28;20116;-66
2023/07/26 01:36:49;;;;;;;7.88;3.83;;;17.20;67.90;;;;;;5045180;28;20027;-66
2023/07/26 01:39:16;;;;;;;7.03;3.63;;;17.20;67.90;;;;;;5046094;28;20021;-67
2023/07/26 01:41:43;;;;;;;6.63;3.00;;;17.20;67.90;;;;;;5045526;28;20039;-67
2023/07/26 01:44:12;;;;;;;6.68;3.13;;;17.10;67.90;;;;;;5046678;28;20052;-67
2023/07/26 01:46:37;;;;;;;7.97;3.35;;;17.10;67.90;;;;;;5044388;28;20025;-66
2023/07/26 01:49:03;;;;;;;6.78;3.00;;;17.10;68.50;;;;;;5048734;28;20516;-67
2023/07/26 01:51:29;;;;;;;6.97;2.92;;;17.10;67.80;;;;;;5042386;28;20047;-67
2023/07/26 01:53:55;;;;;;;7.38;3.50;;;17.00;67.80;;;;;;5043662;28;20548;-67
2023/07/26 01:56:20;;;;;;;8.35;3.60;;;17.00;67.80;;;;;;5052653;28;20033;-67
2023/07/26 01:58:46;;;;;;;8.27;3.47;;;17.00;67.90;;;;;;5065144;28;20032;-67
2023/07/26 02:01:12;;;;;;;8.40;3.75;;;17.00;68.00;;;;;;5064984;28;20032;-67
2023/07/26 02:03:38;;;;;;;7.82;3.58;;;16.90;68.00;;;;;;5030654;28;20040;-67
2023/07/26 02:06:03;;;;;;;6.50;3.25;;;16.90;68.10;;;;;;5048739;28;20029;-67
2023/07/26 02:08:29;;;;;;;7.05;3.80;;;16.90;68.10;;;;;;5033798;28;20025;-67
2023/07/26 02:10:55;;;;;;;7.40;3.83;;;16.90;68.20;;;;;;5047847;28;20032;-66
2023/07/26 02:13:21;;;;;;;7.47;3.90;;;16.80;68.30;;;;;;5047229;28;20032;-67
2023/07/26 02:15:47;;;;;;;8.10;3.63;;;16.80;68.40;;;;;;5062669;28;20017;-67
2023/07/26 02:18:13;;;;;;;6.45;3.67;;;16.80;68.50;;;;;;5043908;28;20030;-67
2023/07/26 02:20:38;;;;;;;7.65;3.67;;;16.80;68.60;;;;;;5050764;28;20028;-67
2023/07/26 02:23:05;;;;;;;6.78;3.67;;;16.80;68.60;;;;;;5027655;28;20022;-67
2023/07/26 02:25:31;;;;;;;8.48;3.72;;;16.80;68.70;;;;;;5048298;28;20056;-66
2023/07/26 02:27:58;;;;;;;7.10;3.83;;;16.70;68.70;;;;;;5045054;28;20089;-67
2023/07/26 02:30:23;;;;;;;7.05;3.35;;;16.70;68.80;;;;;;5026622;28;20388;-67
2023/07/26 02:32:49;;;;;;;6.65;3.65;;;16.70;68.80;;;;;;5026758;28;20041;-67
2023/07/26 02:35:15;;;;;;;7.00;3.80;;;16.70;68.90;;;;;;5033370;28;20025;-67
2023/07/26 02:37:41;;;;;;;7.88;4.03;;;16.60;68.90;;;;;;5043589;28;20026;-67
2023/07/26 02:40:07;;;;;;;8.95;4.70;;;16.60;69.10;;;;;;5049283;28;20040;-67
2023/07/26 02:42:33;;;;;;;6.63;3.88;;;16.60;69.10;;;;;;5023677;28;20041;-67
2023/07/26 02:44:58;;;;;;;7.65;3.88;;;16.60;69.20;;;;;;5038584;28;20032;-67
2023/07/26 02:47:24;;;;;;;7.53;4.03;;;16.50;69.30;;;;;;5044139;28;20038;-67
2023/07/26 02:49:50;;;;;;;8.48;4.72;;;16.50;69.40;;;;;;5048668;28;20041;-67
2023/07/26 02:52:16;;;;;;;7.35;4.22;;;16.50;69.50;;;;;;5028584;28;20028;-67
2023/07/26 02:54:42;;;;;;;7.05;3.88;;;16.50;69.60;;;;;;5060199;28;20124;-67
2023/07/26 02:57:07;;;;;;;7.45;4.30;;;16.50;69.70;;;;;;5048089;28;20029;-67
2023/07/26 02:59:33;;;;;;;7.30;4.30;;;16.40;69.70;;;;;;5050950;28;20033;-67
2023/07/26 03:01:59;;;;;;;8.50;4.07;;;16.40;69.80;;;;;;5046944;28;20028;-67
2023/07/26 03:04:24;;;;;;;7.97;4.38;;;16.40;69.90;;;;;;5043401;28;20037;-66
2023/07/26 03:06:51;;;;;;;7.95;4.45;;;16.40;70.00;;;;;;5043084;28;20017;-68
2023/07/26 03:09:17;;;;;;;9.27;5.13;;;16.30;70.00;;;;;;5042109;28;20087;-67
2023/07/26 03:11:42;;;;;;;7.88;4.45;;;16.30;70.10;;;;;;5044066;28;20204;-68
2023/07/26 03:14:08;;;;;;;7.35;4.82;;;16.30;70.20;;;;;;5040917;28;20052;-67
2023/07/26 03:16:34;;;;;;;8.05;4.63;;;16.30;70.20;;;;;;5026340;28;20129;-66
2023/07/26 03:19:00;;;;;;;8.23;5.03;;;16.30;70.30;;;;;;5045787;28;20026;-66
2023/07/26 03:21:26;;;;;;;9.45;5.25;;;16.30;70.40;;;;;;5023651;28;20025;-66
2023/07/26 03:23:51;;;;;;;8.48;5.60;;;16.20;70.40;;;;;;5043468;28;20036;-66
2023/07/26 03:26:17;;;;;;;8.35;5.05;;;16.20;70.40;;;;;;5041177;28;20104;-67
2023/07/26 03:28:44;;;;;;;8.70;5.43;;;16.20;70.50;;;;;;5045501;28;20373;-66
2023/07/26 03:31:09;;;;;;;8.35;5.50;;;16.20;70.50;;;;;;5024515;28;20025;-66
2023/07/26 03:33:35;;;;;;;9.30;5.53;;;16.20;70.50;;;;;;5050262;28;20094;-66
2023/07/26 03:36:01;;;;;;;9.45;6.15;;;16.20;70.70;;;;;;5047643;28;20025;-67
2023/07/26 03:38:27;;;;;;;8.90;5.68;;;16.20;70.70;;;;;;5041826;28;20017;-66
2023/07/26 03:40:52;;;;;;;8.75;5.82;;;16.20;70.80;;;;;;5041234;28;20230;-66
2023/07/26 03:43:18;;;;;;;9.25;5.65;;;16.20;70.80;;;;;;5059674;28;20391;-68
2023/07/26 03:45:44;;;;;;;9.18;6.28;;;16.20;70.90;;;;;;5044272;28;20435;-66
2023/07/26 03:48:10;;;;;;;8.65;5.63;;;16.10;70.90;;;;;;5047104;28;20358;-67
2023/07/26 03:50:35;;;;;;;9.05;5.85;;;16.10;71.00;;;;;;5042437;28;20477;-66
2023/07/26 03:53:01;;;;;;;9.18;6.43;;;16.10;71.10;;;;;;5044013;28;20363;-66
2023/07/26 03:55:27;;;;;;;9.63;6.43;;;16.10;71.10;;;;;;5042938;28;20347;-66
2023/07/26 03:57:53;;;;;;;10.18;6.07;;;16.10;71.20;;;;;;5039177;28;20025;-66
2023/07/26 04:00:20;;;;;;;9.52;6.13;;;16.10;71.30;;;;;;5043508;28;20041;-66
2023/07/26 04:02:45;;;;;;;10.02;6.32;;;16.10;71.40;;;;;;5044448;28;20434;-66
2023/07/26 04:05:11;;;;;;;8.77;5.82;;;16.10;71.40;;;;;;5044990;28;20025;-67
2023/07/26 04:07:39;;;;;;;9.15;6.43;;;16.00;72.10;;;;;;5042690;28;20456;-67
2023/07/26 04:10:05;;;;;;;10.68;6.35;;;16.10;72.30;;;;;;5030023;28;20028;-67
2023/07/26 04:12:31;;;;;;;9.23;6.15;;;16.00;71.60;;;;;;5044189;28;20469;-66
2023/07/26 04:14:57;;;;;;;9.32;6.13;;;16.00;71.60;;;;;;5046293;28;20131;-66
2023/07/26 04:17:23;;;;;;;11.60;6.47;;;16.00;71.70;;;;;;5045937;28;20028;-66
2023/07/26 04:19:48;;;;;;;8.32;6.15;;;16.10;71.80;;;;;;5037883;28;20331;-67
2023/07/26 04:22:14;;;;;;;10.65;6.45;;;16.10;71.80;;;;;;5047510;28;20070;-66
2023/07/26 04:24:43;;;;;;;9.40;6.28;;;16.10;71.90;;;;;;5049885;28;20456;-67
2023/07/26 04:27:09;;;;;;;9.77;6.70;;;16.10;71.90;;;;;;5035426;28;20056;-66
2023/07/26 04:29:35;;;;;;;9.23;6.38;;;16.10;71.90;;;;;;5038206;28;20072;-66
2023/07/26 04:32:01;;;;;;;9.95;6.60;;;16.10;71.90;;;;;;5048052;28;20119;-66
2023/07/26 04:34:26;;;;;;;9.05;6.55;;;16.20;71.90;;;;;;5043494;28;20021;-67
2023/07/26 04:36:52;;;;;;;9.07;6.28;;;16.20;71.90;;;;;;5038499;28;20025;-67
2023/07/26 04:39:18;;;;;;;8.90;6.13;;;16.20;71.90;;;;;;5042380;28;20029;-66
2023/07/26 04:41:44;;;;;;;8.57;5.97;;;16.30;72.00;;;;;;5061587;28;20086;-67
2023/07/26 04:44:10;;;;;;;9.70;6.20;;;16.30;72.00;;;;;;5049882;28;20560;-67
2023/07/26 04:46:35;;;;;;;10.23;6.70;;;16.30;71.80;;;;;;5041586;28;20033;-67
2023/07/26 04:49:01;;;;;;;9.60;6.35;;;16.30;71.80;;;;;;5047671;28;20033;-67
2023/07/26 04:51:27;;;;;;;9.15;5.97;;;16.40;71.80;;;;;;5051696;28;20021;-67
2023/07/26 04:53:53;;;;;;;8.73;5.82;;;16.40;71.80;;;;;;5048048;28;20427;-67
2023/07/26 04:56:19;;;;;;;10.07;6.72;;;16.30;71.80;;;;;;5047063;28;20046;-67
2023/07/26 04:58:45;;;;;;;8.50;5.93;;;16.40;71.80;;;;;;5045386;28;20073;-67
2023/07/26 05:01:10;;;;;;;10.30;6.07;;;16.30;71.70;;;;;;5049155;28;20028;-67
2023/07/26 05:03:38;;;;;;;9.57;6.47;;;16.40;71.80;;;;;;5035357;28;20056;-66
2023/07/26 05:06:04;;;;;;;10.15;6.35;;;16.40;71.70;;;;;;5051922;28;20040;-66
2023/07/26 05:08:29;;;;;;;9.30;6.60;;;16.40;71.80;;;;;;5051940;28;20033;-67
2023/07/26 05:10:55;;;;;;;8.07;5.50;;;16.40;71.70;;;;;;5048271;28;20505;-66
2023/07/26 05:13:23;;;;;;;9.55;6.22;;;16.40;71.70;;;;;;5047232;28;20459;-66
2023/07/26 05:15:49;;;;;;;10.98;5.78;;;16.40;71.80;;;;;;5055961;28;20020;-67
2023/07/26 05:18:15;;;;;;;11.43;5.78;;;16.40;71.80;;;;;;5057121;28;20025;-67
2023/07/26 05:20:42;;;;;;;10.10;6.80;;;16.50;71.70;;;;;;5055966;28;20023;-67
2023/07/26 05:23:08;;;;;;;9.30;6.38;;;16.50;71.60;;;;;;5057604;28;20033;-67
2023/07/26 05:25:34;;;;;;;10.30;6.53;;;16.60;71.60;;;;;;5056979;28;20052;-67
2023/07/26 05:28:00;;;;;;;9.68;6.13;;;16.70;71.50;;;;;;5037429;28;20017;-67
2023/07/26 05:30:26;;;;;;;8.50;5.65;;;16.80;71.30;;;;;;5050304;28;20036;-67
2023/07/26 05:32:51;;;;;;;9.93;6.50;;;16.80;71.00;;;;;;5054129;28;20075;-67
2023/07/26 05:35:17;;;;;;;9.30;6.10;;;16.90;70.80;;;;;;5057817;28;20017;-67
2023/07/26 05:37:43;;;;;;;10.27;6.57;;;17.00;70.80;;;;;;5056719;28;20044;-67
2023/07/26 05:40:09;;;;;;;10.90;6.40;;;17.00;70.80;;;;;;5050929;28;20013;-67
2023/07/26 05:42:36;;;;;;;10.18;6.10;;;17.00;70.80;;;;;;5051244;28;20472;-67
2023/07/26 05:45:02;;;;;;;11.00;6.72;;;17.00;70.80;;;;;;5051528;28;20477;-67
2023/07/26 05:47:28;;;;;;;8.93;6.25;;;17.10;70.90;;;;;;5045377;28;20029;-67
2023/07/26 05:49:54;;;;;;;9.63;5.93;;;17.10;70.90;;;;;;5047296;28;20599;-67
2023/07/26 05:52:19;;;;;;;9.00;6.07;;;17.10;70.90;;;;;;5054003;28;20438;-67
2023/07/26 05:54:45;;;;;;;9.23;6.43;;;17.10;71.00;;;;;;5057502;28;20021;-67
2023/07/26 05:57:11;;;;;;;9.40;6.30;;;17.10;71.00;;;;;;5056392;28;20021;-67
2023/07/26 05:59:37;;;;;;;8.02;6.03;;;17.10;70.90;;;;;;5056244;28;20051;-67
2023/07/26 06:02:03;;;;;;;9.93;6.95;;;17.10;70.80;;;;;;5052195;28;20059;-66
2023/07/26 06:04:29;;;;;;;10.43;6.50;;;17.10;70.80;;;;;;5055115;28;20025;-65
2023/07/26 06:06:55;;;;;;;9.52;6.90;;;17.20;70.70;;;;;;5034394;28;20025;-65
2023/07/26 06:09:22;;;;;;;8.82;6.07;;;17.20;70.70;;;;;;5055398;28;20052;-65
2023/07/26 06:11:48;;;;;;;9.15;6.10;;;17.20;70.60;;;;;;5046196;28;20112;-65
2023/07/26 06:14:14;;;;;;;9.18;6.15;;;17.40;70.50;;;;;;5053990;28;20112;-65
2023/07/26 06:16:40;;;;;;;9.43;6.18;;;17.50;70.10;;;;;;5047905;28;20094;-65
2023/07/26 06:19:05;;;;;;;8.55;5.82;;;17.70;69.70;;;;;;5046094;28;20041;-67
2023/07/26 06:21:33;;;;;;;8.57;5.32;;;17.90;69.40;;;;;;5053854;28;20033;-65
2023/07/26 06:23:59;;;;;;;9.52;6.38;;;18.00;69.00;;;;;;5047858;28;20139;-65
2023/07/26 06:26:25;;;;;;;9.05;5.85;;;18.10;68.80;;;;;;5055455;28;20470;-68
2023/07/26 06:28:51;;;;;;;13.50;6.50;;;18.20;68.80;;;;;;5043978;28;20091;-67
2023/07/26 06:31:16;;;;;;;11.07;6.15;;;18.20;68.70;;;;;;5049941;28;20029;-65
2023/07/26 06:33:42;;;;;;;10.65;6.40;;;18.30;68.60;;;;;;5047977;28;20021;-65
2023/07/26 06:36:08;;;;;;;8.30;5.80;;;18.30;68.50;;;;;;5050930;28;20021;-67
2023/07/26 06:38:34;;;;;;;10.60;6.13;;;18.40;68.50;;;;;;5044574;28;20031;-67
2023/07/26 06:41:00;;;;;;;11.55;6.40;;;18.40;69.10;;;;;;5052099;28;20024;-66
2023/07/26 06:43:26;;;;;;;10.18;6.72;;;18.30;68.50;;;;;;5048018;28;20021;-66
2023/07/26 06:45:52;;;;;;;10.13;6.80;;;18.30;68.60;;;;;;5046225;28;20037;-66
2023/07/26 06:48:19;;;;;;;10.25;6.70;;;18.20;68.80;;;;;;5049436;28;20478;-64
2023/07/26 06:50:45;;;;;;;11.25;6.65;;;18.20;69.00;;;;;;5066755;28;20036;-64
2023/07/26 06:53:11;;;;;;;9.93;6.45;;;18.20;69.20;;;;;;5044481;28;20041;-66
2023/07/26 06:55:37;;;;;;;11.18;6.85;;;18.20;69.20;;;;;;5046571;28;20089;-65
2023/07/26 06:58:03;;;;;;;13.63;7.35;;;18.20;69.30;;;;;;5065231;28;20051;-65
2023/07/26 07:00:29;;;;;;;11.25;8.00;;;18.20;69.50;;;;;;5046799;28;20030;-64
2023/07/26 07:03:00;;;;;;;11.43;7.72;;;18.10;69.70;;;;;;5050208;28;20094;-65
2023/07/26 07:05:30;;;;;;;10.43;7.25;;;18.10;70.00;;;;;;5044548;28;20040;-65
2023/07/26 07:07:56;;;;;;;11.40;7.18;;;18.10;70.60;;;;;;5033595;28;20032;-67
2023/07/26 07:10:22;;;;;;;11.00;7.38;;;18.10;70.00;;;;;;5045440;28;20029;-65
2023/07/26 07:12:49;;;;;;;12.77;7.97;;;18.10;70.00;;;;;;5047565;28;20038;-65
2023/07/26 07:15:15;;;;;;;10.82;7.35;;;18.10;70.20;;;;;;5047366;28;20032;-66
2023/07/26 07:17:41;;;;;;;10.50;7.30;;;18.10;70.30;;;;;;5050307;28;20534;-67
2023/07/26 07:20:08;;;;;;;11.73;8.00;;;18.10;70.60;;;;;;5049619;28;20025;-65
2023/07/26 07:22:34;;;;;;;12.27;6.97;;;18.00;70.80;;;;;;5044009;28;20099;-65
2023/07/26 07:25:00;;;;;;;10.20;7.07;;;18.00;71.10;;;;;;5050791;28;20100;-66
2023/07/26 07:27:26;;;;;;;11.20;7.75;;;18.00;71.50;;;;;;5048183;28;20029;-67
2023/07/26 07:29:52;;;;;;;14.05;7.72;;;17.90;71.70;;;;;;5028883;28;21281;-66
2023/07/26 07:32:18;;;;;;;10.50;7.20;;;17.80;72.00;;;;;;5046715;28;20040;-66
2023/07/26 07:34:45;;;;;;;13.32;7.80;;;17.80;72.40;;;;;;5046033;28;20033;-67
2023/07/26 07:37:11;;;;;;;12.10;7.75;;;17.70;73.10;;;;;;5049232;28;20038;-65
2023/07/26 07:39:37;;;;;;;12.50;7.07;;;17.60;73.20;;;;;;5047618;28;20034;-66
2023/07/26 07:42:03;;;;;;;11.45;7.00;;;17.50;73.60;;;;;;5051356;28;20024;-67
2023/07/26 07:44:29;;;;;;;11.65;6.97;;;17.40;74.10;;;;;;5049044;28;20109;-65
2023/07/26 07:46:55;;;;;;;9.80;6.35;;;17.30;74.60;;;;;;5050787;28;20682;-65
2023/07/26 07:49:21;;;;;;;9.13;5.28;;;17.30;74.80;;;;;;5048709;28;20052;-64
2023/07/26 07:51:47;;;;;;;7.28;3.10;;;17.10;74.80;;;;;;5049230;28;20025;-67
2023/07/26 07:54:13;;;;;;;5.60;2.20;;;17.10;74.70;;;;;;5048324;28;20358;-66
2023/07/26 07:56:39;;;;;;;5.30;2.08;;;17.00;74.60;;;;;;5048695;28;20021;-65
2023/07/26 07:59:05;;;;;;;5.50;2.53;;;16.90;74.60;;;;;;5027687;28;20117;-65
2023/07/26 08:01:32;;;;;;;4.75;2.40;;;16.80;74.70;;;;;;5052078;28;20453;-66
2023/07/26 08:03:59;;;;;;;5.32;2.25;;;16.70;74.80;;;;;;5046829;28;20081;-67
2023/07/26 08:06:25;;;;;;;6.13;2.45;;;16.70;74.80;;;;;;5045867;28;20108;-64
2023/07/26 08:08:51;;;;;;;5.28;2.00;;;16.70;74.80;;;;;;5046752;28;20418;-64
2023/07/26 08:11:17;;;;;;;4.60;2.00;;;16.80;74.90;;;;;;5045425;28;21230;-64
2023/07/26 08:13:43;;;;;;;4.43;2.03;;;16.80;74.70;;;;;;5051269;28;20037;-65
2023/07/26 08:16:09;;;;;;;4.28;2.03;;;16.80;74.70;;;;;;5043045;28;20033;-65
2023/07/26 08:18:35;;;;;;;4.97;2.10;;;16.90;74.60;;;;;;5046625;28;20020;-66
2023/07/26 08:21:02;;;;;;;5.20;2.30;;;17.00;74.30;;;;;;5046341;28;20055;-63
2023/07/26 08:23:30;;;;;;;5.55;2.03;;;17.20;74.00;;;;;;5050989;28;20365;-66
2023/07/26 08:25:56;;;;;;;4.30;1.90;;;17.40;73.80;;;;;;5049829;28;20322;-64
2023/07/26 08:28:22;;;;;;;5.10;2.05;;;17.80;73.90;;;;;;5050193;28;20364;-64
2023/07/26 08:30:48;;;;;;;4.63;2.03;;;18.30;72.40;;;;;;5047912;28;20021;-64
2023/07/26 08:33:14;;;;;;;5.60;2.20;;;18.70;71.60;;;;;;5050339;28;20350;-65
2023/07/26 08:35:39;;;;;;;4.95;2.10;;;19.10;71.00;;;;;;5048485;28;20461;-66
2023/07/26 08:38:05;;;;;;;5.57;1.90;;;19.50;70.50;;;;;;5043045;28;20591;-66
2023/07/26 08:40:31;;;;;;;4.22;1.90;;;19.80;69.60;;;;;;5062063;28;20025;-65
2023/07/26 08:43:02;;;;;;;4.95;1.70;;;20.10;68.50;;;;;;5047532;28;20021;-64
2023/07/26 08:45:28;;;;;;;5.07;1.88;;;20.20;67.70;;;;;;5045373;28;20458;-66
2023/07/26 08:47:54;;;;;;;3.65;1.77;;;20.40;67.40;;;;;;5046224;28;20082;-66
2023/07/26 08:50:21;;;;;;;3.75;1.75;;;20.60;67.10;;;;;;5049035;28;20039;-67
2023/07/26 08:52:47;;;;;;;4.53;1.95;;;20.80;66.80;;;;;;5042947;28;20025;-66
2023/07/26 08:55:14;;;;;;;6.75;2.17;;;21.00;66.40;;;;;;5042620;28;20067;-66
2023/07/26 08:57:41;;;;;;;5.28;2.25;;;21.20;66.00;;;;;;5048965;28;20037;-65
2023/07/26 09:00:07;;;;;;;5.30;2.20;;;21.40;65.20;;;;;;5031598;28;20381;-65
2023/07/26 09:02:34;;;;;;;6.35;2.42;;;21.50;64.80;;;;;;5048078;28;20041;-66
2023/07/26 09:05:00;;;;;;;4.60;2.10;;;21.60;64.30;;;;;;5026160;28;20034;-67
2023/07/26 09:07:26;;;;;;;4.47;2.17;;;21.80;64.00;;;;;;5053399;28;20036;-68
2023/07/26 09:09:52;;;;;;;6.35;2.58;;;21.90;63.60;;;;;;5054790;28;20055;-67
2023/07/26 09:12:28;;;;;;;6.00;2.10;;;22.00;63.40;;;;;;5053301;28;20067;-66
2023/07/26 09:14:59;;;;;;;4.95;2.35;;;22.10;63.40;;;;;;5034965;28;20029;-67
2023/07/26 09:17:40;;;;;;;5.00;1.95;;;22.20;63.30;;;;;;5051487;28;20040;-67
2023/07/26 09:20:19;;;;;;;5.57;2.30;;;22.20;62.90;;;;;;5053383;28;20031;-67
2023/07/26 09:22:45;;;;;;;5.30;2.13;;;22.30;62.90;;;;;;5054412;28;20025;-67
2023/07/26 09:25:11;;;;;;;5.40;2.40;;;22.40;62.60;;;;;;5043600;28;20017;-67
2023/07/26 09:27:52;;;;;;;5.32;2.50;;;22.50;62.50;;;;;;5050090;28;20036;-67
2023/07/26 09:30:21;;;;;;;5.10;2.20;;;22.60;61.60;;;;;;5054197;28;20051;-67
2023/07/26 09:32:48;;;;;;;5.70;2.78;;;22.80;61.70;;;;;;5054359;28;20021;-67
2023/07/26 09:35:14;;;;;;;6.72;3.45;;;22.80;61.20;;;;;;5053836;28;20032;-67
2023/07/26 09:37:40;;;;;;;7.43;3.20;;;23.00;61.00;;;;;;5046717;28;20021;-67
2023/07/26 09:40:06;;;;;;;7.15;3.70;;;23.10;60.60;;;;;;5053783;28;20353;-67
2023/07/26 09:42:46;;;;;;;7.18;3.67;;;23.20;60.10;;;;;;5046868;28;20039;-67
2023/07/26 09:45:21;;;;;;;7.78;3.72;;;23.40;60.40;;;;;;5040824;28;20036;-67
2023/07/26 09:47:48;;;;;;;6.93;3.60;;;23.50;59.90;;;;;;5045206;28;20366;-66
2023/07/26 09:50:28;;;;;;;7.90;3.20;;;23.70;59.50;;;;;;5039599;28;20057;-66
2023/07/26 09:52:55;;;;;;;8.33;3.73;;;23.90;59.10;;;;;;5040852;28;20018;-67
2023/07/26 09:55:26;;;;;;;8.35;4.28;;;23.90;58.90;;;;;;5045026;28;20037;-66
2023/07/26 09:57:53;;;;;;;10.82;5.03;;;23.80;58.80;;;;;;5052782;28;20014;-66
2023/07/26 10:00:21;;;;;;;8.77;4.80;;;23.80;58.80;;;;;;5053483;28;20025;-67
2023/07/26 10:02:58;;;;;;;7.93;4.45;;;24.00;58.60;;;;;;5048798;28;20048;-67
2023/07/26 10:05:26;;;;;;;9.30;4.80;;;24.00;58.30;;;;;;5052837;28;20112;-66
2023/07/26 10:07:53;;;;;;;7.93;4.22;;;23.90;58.50;;;;;;5055403;28;20039;-66
2023/07/26 10:10:20;;;;;;;8.75;3.60;;;23.80;58.70;;;;;;5050955;28;20346;-67
2023/07/26 10:12:46;;;;;;;8.90;4.57;;;23.70;58.80;;;;;;5057509;28;20108;-66
2023/07/26 10:15:12;;;;;;;8.25;4.05;;;23.60;58.80;;;;;;5057417;28;20124;-67
2023/07/26 10:17:42;;;;;;;7.93;4.28;;;23.50;59.20;;;;;;5057389;28;20024;-67
2023/07/26 10:20:09;;;;;;;8.40;4.28;;;23.70;59.20;;;;;;5053269;28;20025;-67
2023/07/26 10:22:38;;;;;;;8.13;4.10;;;23.80;58.90;;;;;;5055976;28;20095;-67
2023/07/26 10:25:04;;;;;;;8.30;4.43;;;23.70;58.90;;;;;;5051572;28;20025;-66
2023/07/26 10:27:30;;;;;;;10.43;4.57;;;23.40;59.00;;;;;;5050726;28;20078;-66
2023/07/26 10:29:56;;;;;;;10.43;4.85;;;23.10;59.80;;;;;;5049519;28;20020;-66
2023/07/26 10:32:22;;;;;;;8.50;3.65;;;22.70;60.80;;;;;;5050693;28;20037;-66
2023/07/26 10:34:55;;;;;;;8.27;3.70;;;22.30;61.70;;;;;;5051267;28;20033;-67
2023/07/26 10:37:21;;;;;;;7.85;4.03;;;21.90;62.60;;;;;;5048830;28;20021;-66
2023/07/26 10:39:51;;;;;;;9.63;3.75;;;21.40;63.10;;;;;;5046438;28;20040;-64
2023/07/26 10:42:29;;;;;;;6.93;2.92;;;21.10;63.80;;;;;;5049941;28;20082;-65
2023/07/26 10:45:00;;;;;;;5.38;2.60;;;20.80;64.60;;;;;;5048500;28;20354;-66
2023/07/26 10:47:26;;;;;;;7.93;2.80;;;20.60;65.10;;;;;;5049827;28;20032;-65
2023/07/26 10:50:03;;;;;;;8.55;3.47;;;20.40;65.70;;;;;;5067261;28;20318;-64
2023/07/26 10:52:36;;;;;;;7.78;3.70;;;20.30;66.50;;;;;;5034202;28;20051;-66
2023/07/26 10:55:27;;;;;;;7.85;3.85;;;20.40;67.20;;;;;;5048119;28;20060;-65
2023/07/26 10:57:57;;;;;;;8.55;3.97;;;20.50;67.30;;;;;;5046820;28;20045;-65
2023/07/26 11:00:37;;;;;;;6.43;3.40;;;20.80;67.30;;;;;;5049851;28;20098;-65
2023/07/26 11:03:02;;;;;;;8.98;3.97;;;21.00;67.20;;;;;;5051776;28;20029;-65
2023/07/26 11:05:29;;;;;;;7.32;4.05;;;21.20;67.10;;;;;;5049088;28;20040;-65
2023/07/26 11:07:55;;;;;;;7.35;3.70;;;21.50;66.80;;;;;;5048636;28;20095;-66
2023/07/26 11:10:23;;;;;;;7.75;3.70;;;21.90;66.30;;;;;;5045845;28;20033;-66
2023/07/26 11:13:02;;;;;;;8.35;3.60;;;22.20;65.90;;;;;;5049522;28;20021;-66
2023/07/26 11:15:32;;;;;;;8.60;3.70;;;22.50;65.30;;;;;;5066602;28;20037;-65
2023/07/26 11:17:58;;;;;;;7.43;3.67;;;22.60;65.10;;;;;;5051192;28;20167;-65
2023/07/26 11:20:24;;;;;;;8.00;3.72;;;22.80;65.00;;;;;;5047942;28;20112;-66
2023/07/26 11:22:50;;;;;;;7.93;4.05;;;23.10;64.60;;;;;;5028466;28;20018;-66
2023/07/26 11:25:16;;;;;;;7.13;3.70;;;23.30;64.10;;;;;;5051074;28;20040;-65
2023/07/26 11:27:43;;;;;;;7.55;3.83;;;23.40;63.70;;;;;;5052051;28;20040;-66
2023/07/26 11:30:19;;;;;;;7.70;3.60;;;23.60;63.10;;;;;;5047503;28;20358;-65
2023/07/26 11:32:50;;;;;;;7.47;3.63;;;23.70;62.30;;;;;;5047048;28;20037;-65
2023/07/26 11:35:20;;;;;;;6.93;3.70;;;23.80;62.30;;;;;;5052353;28;20033;-65
2023/07/26 11:37:56;;;;;;;6.30;3.28;;;23.90;62.20;;;;;;5045670;28;20018;-65
2023/07/26 11:40:22;;;;;;;6.93;3.47;;;23.90;61.50;;;;;;5044338;28;20100;-65
2023/07/26 11:42:52;;;;;;;6.47;3.17;;;23.70;61.70;;;;;;5042137;28;20032;-65
2023/07/26 11:45:18;;;;;;;7.22;3.70;;;23.50;62.10;;;;;;5043292;28;20025;-66
2023/07/26 11:47:45;;;;;;;7.88;4.10;;;23.10;62.40;;;;;;5035553;28;20486;-66
2023/07/26 11:50:11;;;;;;;9.75;3.67;;;22.90;63.00;;;;;;5040422;28;20091;-66
2023/07/26 11:52:38;;;;;;;8.90;3.88;;;22.60;63.70;;;;;;5049886;28;20119;-67
2023/07/26 11:55:05;;;;;;;7.45;3.65;;;22.30;64.60;;;;;;5051428;28;20037;-67
2023/07/26 11:57:31;;;;;;;8.77;3.97;;;22.10;65.30;;;;;;5067298;28;20104;-67
2023/07/26 12:00:01;;;;;;;7.43;3.38;;;21.90;65.90;;;;;;5053889;28;20033;-67
2023/07/26 12:02:29;;;;;;;8.88;3.33;;;21.90;66.00;;;;;;5051188;28;20045;-67
2023/07/26 12:05:20;;;;;;;7.57;3.13;;;22.10;65.70;;;;;;5036478;28;20078;-67
2023/07/26 12:07:53;;;;;;;;;;;22.20;65.20;;;;;;5058727;28;20040;-67
2023/07/26 12:10:34;;;;;;;6.25;2.75;;;22.20;65.00;;;;;;5054687;28;19931;-67
2023/07/26 12:13:03;;;;;;;7.78;3.00;;;22.00;64.40;;;;;;5051399;28;20032;-67
2023/07/26 12:15:29;;;;;;;7.43;3.25;;;21.90;64.50;;;;;;5049230;28;20037;-67
2023/07/26 12:18:02;;;;;;;5.80;2.70;;;21.70;64.90;;;;;;5036909;28;20013;-67
2023/07/26 12:20:30;;;;;;;6.57;2.75;;;21.60;65.20;;;;;;5054280;28;20391;-67
2023/07/26 12:22:58;;;;;;;6.30;2.90;;;21.40;65.30;;;;;;5052463;28;20025;-67
2023/07/26 12:25:57;;;;;;;7.53;2.88;;;21.30;65.40;;;;;;5031102;28;20069;-69
2023/07/26 12:28:26;;;;;;;6.20;2.67;;;21.30;65.50;;;;;;5025666;28;20053;-68
2023/07/26 12:30:57;;;;;;;6.43;2.80;;;21.20;65.30;;;;;;5053611;28;20037;-67
2023/07/26 12:33:25;;;;;;;6.07;2.83;;;21.20;64.90;;;;;;5052108;28;20059;-67
2023/07/26 12:35:55;;;;;;;6.45;2.90;;;21.30;64.40;;;;;;5048247;28;20056;-69
2023/07/26 12:38:22;;;;;;;6.28;2.90;;;21.40;64.00;;;;;;5037031;28;20021;-67
2023/07/26 12:40:51;;;;;;;7.68;3.22;;;21.60;63.80;;;;;;5054365;28;20025;-67
2023/07/26 12:43:28;;;;;;;5.20;2.50;;;21.70;63.80;;;;;;5054324;28;20021;-67
2023/07/26 12:45:58;;;;;;;5.50;2.35;;;21.80;63.10;;;;;;5051380;28;20029;-67